Time;durP1;ratioP1;P1;durP2;ratioP2;P2;SDS_P1;SDS_P2;PMS_P1;PMS_P2;Temp;Humidity;BMP_temperature;BMP_pressure;BME280_temperature;BME280_humidity;BME280_pressure;Samples;Min_cycle;Max_cycle;Signal;HPM_P1;HPM_P2
2023/10/23 00:00:23;;;;;;;4.47;1.30;;;10.10;99.90;;;;;;5061637;28;20233;-44
2023/10/23 00:02:49;;;;;;;7.20;1.70;;;10.00;99.90;;;;;;5074379;28;20240;-44
2023/10/23 00:05:17;;;;;;;3.53;1.20;;;10.00;99.90;;;;;;5075659;28;20558;-44
2023/10/23 00:07:48;;;;;;;4.77;2.00;;;10.00;99.90;;;;;;5074354;28;20179;-43
2023/10/23 00:10:15;;;;;;;6.10;2.10;;;9.90;99.90;;;;;;5075367;28;20202;-44
2023/10/23 00:12:40;;;;;;;4.63;1.50;;;9.80;99.90;;;;;;5074110;28;20166;-46
2023/10/23 00:15:11;;;;;;;6.07;1.40;;;9.80;99.90;;;;;;5075578;28;20194;-44
2023/10/23 00:17:36;;;;;;;3.87;1.27;;;9.70;99.90;;;;;;5075778;28;20589;-44
2023/10/23 00:20:03;;;;;;;4.37;1.57;;;9.70;99.90;;;;;;5075153;28;20266;-45
2023/10/23 00:22:28;;;;;;;5.93;1.60;;;9.60;99.90;;;;;;5057109;28;20191;-44
2023/10/23 00:24:54;;;;;;;3.93;1.23;;;9.50;99.90;;;;;;5075007;28;20588;-44
2023/10/23 00:27:22;;;;;;;3.03;1.30;;;9.50;99.90;;;;;;5074926;28;20643;-44
2023/10/23 00:29:47;;;;;;;4.13;1.40;;;9.50;99.90;;;;;;5075200;28;20164;-43
2023/10/23 00:32:13;;;;;;;3.67;1.10;;;9.40;99.90;;;;;;5074965;28;20176;-44
2023/10/23 00:34:41;;;;;;;5.63;1.57;;;9.40;99.90;;;;;;5074886;28;20241;-44
2023/10/23 00:37:10;;;;;;;3.83;1.53;;;9.30;99.90;;;;;;5074444;28;20230;-43
2023/10/23 00:39:37;;;;;;;3.77;1.37;;;9.30;99.90;;;;;;5074993;28;20237;-44
2023/10/23 00:42:05;;;;;;;4.90;1.77;;;9.30;99.90;;;;;;5074769;28;20191;-43
2023/10/23 00:44:32;;;;;;;3.40;1.20;;;9.20;99.90;;;;;;5073472;28;20234;-44
2023/10/23 00:46:58;;;;;;;4.63;1.17;;;9.20;99.90;;;;;;5073814;28;20186;-44
2023/10/23 00:49:27;;;;;;;2.77;1.30;;;9.10;99.90;;;;;;5075042;28;20621;-45
2023/10/23 00:51:54;;;;;;;3.17;1.30;;;9.00;99.90;;;;;;5074414;28;20227;-44
2023/10/23 00:54:21;;;;;;;3.10;1.40;;;9.00;99.90;;;;;;5073718;28;20209;-44
2023/10/23 00:56:48;;;;;;;2.63;1.00;;;8.90;99.90;;;;;;5074017;28;20206;-44
2023/10/23 00:59:14;;;;;;;5.33;1.40;;;9.00;99.90;;;;;;5073545;28;20198;-44
2023/10/23 01:01:45;;;;;;;2.87;1.37;;;8.90;99.90;;;;;;5073305;28;20633;-44
2023/10/23 01:04:13;;;;;;;3.50;1.80;;;8.80;99.90;;;;;;5072223;28;20536;-44
2023/10/23 01:06:39;;;;;;;4.90;1.67;;;8.80;99.90;;;;;;5074330;28;20614;-43
2023/10/23 01:09:05;;;;;;;2.70;1.30;;;8.70;99.90;;;;;;5074543;28;20178;-44
2023/10/23 01:11:32;;;;;;;2.17;1.30;;;8.60;99.90;;;;;;5074391;28;20250;-44
2023/10/23 01:13:59;;;;;;;3.17;1.50;;;8.60;99.90;;;;;;5072726;28;20272;-44
2023/10/23 01:16:25;;;;;;;2.40;1.30;;;8.60;99.90;;;;;;5075045;28;20178;-44
2023/10/23 01:18:51;;;;;;;5.87;1.27;;;8.50;99.90;;;;;;5074322;28;20192;-43
2023/10/23 01:21:17;;;;;;;2.87;1.10;;;8.50;99.90;;;;;;5073953;28;20206;-44
2023/10/23 01:23:47;;;;;;;2.07;1.10;;;8.50;99.90;;;;;;5073856;28;20229;-43
2023/10/23 01:26:14;;;;;;;6.23;1.27;;;8.40;99.90;;;;;;5073530;28;20218;-44
2023/10/23 01:28:43;;;;;;;1.83;1.20;;;8.30;99.90;;;;;;5074072;28;20193;-43
2023/10/23 01:31:09;;;;;;;2.73;1.10;;;8.30;99.90;;;;;;5073777;28;20606;-44
2023/10/23 01:33:40;;;;;;;4.50;1.60;;;8.30;99.90;;;;;;5073682;28;20182;-44
2023/10/23 01:36:05;;;;;;;3.70;1.30;;;8.20;99.90;;;;;;5073781;28;20534;-44
2023/10/23 01:38:31;;;;;;;6.77;1.20;;;8.20;99.90;;;;;;5073706;28;20178;-43
2023/10/23 01:40:57;;;;;;;5.00;1.70;;;8.20;99.90;;;;;;5073866;28;20694;-43
2023/10/23 01:43:23;;;;;;;2.93;1.30;;;8.20;99.90;;;;;;5073661;28;20186;-44
2023/10/23 01:45:49;;;;;;;3.97;1.60;;;8.20;99.90;;;;;;5073590;28;20211;-45
2023/10/23 01:48:15;;;;;;;3.60;1.40;;;8.10;99.90;;;;;;5073073;28;20240;-44
2023/10/23 01:50:40;;;;;;;3.30;1.03;;;8.10;99.90;;;;;;5072909;28;20665;-44
2023/10/23 01:53:06;;;;;;;4.10;1.53;;;8.10;99.90;;;;;;5073875;28;20209;-45
2023/10/23 01:55:39;;;;;;;2.03;1.07;;;8.10;99.90;;;;;;5073681;28;20205;-43
2023/10/23 01:58:06;;;;;;;2.77;1.30;;;8.00;99.90;;;;;;5073415;28;20164;-43
2023/10/23 02:00:32;;;;;;;3.93;1.43;;;8.00;99.90;;;;;;5073415;28;20689;-43
2023/10/23 02:03:05;;;;;;;6.50;1.43;;;7.90;99.90;;;;;;5073749;28;20171;-44
2023/10/23 02:05:30;;;;;;;4.63;1.53;;;7.90;99.90;;;;;;5073443;28;20241;-43
2023/10/23 02:07:56;;;;;;;3.73;1.07;;;7.80;99.90;;;;;;5073678;28;20181;-45
2023/10/23 02:10:23;;;;;;;3.73;1.43;;;7.80;99.90;;;;;;5073253;28;20287;-43
2023/10/23 02:12:49;;;;;;;1.67;1.20;;;7.80;99.90;;;;;;5073337;28;20182;-44
2023/10/23 02:15:18;;;;;;;2.57;1.40;;;7.80;99.90;;;;;;5072391;28;20193;-43
2023/10/23 02:17:56;;;;;;;2.80;1.30;;;7.70;99.90;;;;;;5073288;28;20543;-44
2023/10/23 02:20:22;;;;;;;3.10;1.10;;;7.70;99.90;;;;;;5055256;28;20211;-43
2023/10/23 02:22:47;;;;;;;2.97;1.40;;;7.70;99.90;;;;;;5055295;28;20181;-42
2023/10/23 02:25:13;;;;;;;3.30;1.20;;;7.70;99.90;;;;;;5055256;28;20200;-43
2023/10/23 02:27:39;;;;;;;5.93;1.40;;;7.70;99.90;;;;;;5073192;28;20256;-43
2023/10/23 02:30:07;;;;;;;4.47;1.07;;;7.60;99.90;;;;;;5055176;28;20196;-44
2023/10/23 02:32:33;;;;;;;1.37;1.03;;;7.50;99.90;;;;;;5055912;28;20186;-44
2023/10/23 02:34:58;;;;;;;6.40;1.60;;;7.60;99.90;;;;;;5055034;28;20179;-43
2023/10/23 02:37:24;;;;;;;5.20;1.10;;;7.50;99.90;;;;;;5055019;28;20180;-43
2023/10/23 02:39:50;;;;;;;1.30;0.90;;;7.50;99.90;;;;;;5073047;28;20175;-43
2023/10/23 02:42:15;;;;;;;5.43;1.30;;;7.40;99.90;;;;;;5073099;28;20546;-43
2023/10/23 02:44:42;;;;;;;2.10;1.13;;;7.40;99.90;;;;;;5054978;28;20188;-43
2023/10/23 02:47:08;;;;;;;1.83;1.00;;;7.40;99.90;;;;;;5055123;28;20272;-44
2023/10/23 02:49:34;;;;;;;1.67;1.10;;;7.30;99.90;;;;;;5073466;28;20199;-44
2023/10/23 02:52:01;;;;;;;5.93;0.93;;;7.30;99.90;;;;;;5072832;28;20199;-44
2023/10/23 02:54:28;;;;;;;2.80;1.13;;;7.30;99.90;;;;;;5054914;28;20191;-44
2023/10/23 02:56:54;;;;;;;4.80;1.83;;;7.20;99.90;;;;;;5055034;28;20172;-42
2023/10/23 02:59:21;;;;;;;1.63;1.30;;;7.20;99.90;;;;;;5073589;28;20168;-43
2023/10/23 03:01:46;;;;;;;4.13;1.10;;;7.20;99.90;;;;;;5058405;28;20615;-43
2023/10/23 03:04:13;;;;;;;2.17;0.90;;;7.10;99.90;;;;;;5076691;28;20263;-45
2023/10/23 03:06:40;;;;;;;3.60;1.30;;;7.10;99.90;;;;;;5076790;28;20597;-44
2023/10/23 03:09:07;;;;;;;4.33;1.20;;;7.10;99.90;;;;;;5075419;28;20690;-43
2023/10/23 03:11:33;;;;;;;3.33;1.53;;;7.10;99.90;;;;;;5058903;28;20215;-43
2023/10/23 03:13:59;;;;;;;5.63;1.77;;;7.00;99.90;;;;;;5076419;28;20201;-43
2023/10/23 03:16:26;;;;;;;6.70;1.60;;;7.00;99.90;;;;;;5076493;28;20176;-44
2023/10/23 03:18:53;;;;;;;4.50;1.60;;;7.00;99.90;;;;;;5058891;28;20183;-42
2023/10/23 03:34:27;;;;;;;5.20;1.67;;;6.90;99.90;;;;;;5076374;28;20198;-45
2023/10/23 03:36:53;;;;;;;4.23;1.57;;;6.90;99.90;;;;;;5058250;28;20226;-44
2023/10/23 03:39:19;;;;;;;3.67;1.70;;;6.90;99.90;;;;;;5058162;28;20651;-44
2023/10/23 03:41:44;;;;;;;6.30;2.10;;;6.80;99.90;;;;;;5076120;28;20238;-44
2023/10/23 03:44:11;;;;;;;3.10;1.60;;;6.80;99.90;;;;;;5058043;28;20709;-44
2023/10/23 03:46:37;;;;;;;4.77;1.73;;;6.80;99.90;;;;;;5058130;28;20682;-44
2023/10/23 03:49:04;;;;;;;3.47;1.50;;;6.80;99.90;;;;;;5058150;28;20270;-45
2023/10/23 03:51:40;;;;;;;5.17;1.80;;;6.80;99.90;;;;;;5075744;28;20674;-44
2023/10/23 03:54:10;;;;;;;4.87;1.60;;;6.70;99.90;;;;;;5075761;28;20190;-44
2023/10/23 03:56:38;;;;;;;3.13;1.60;;;6.70;99.90;;;;;;5057857;28;20196;-45
2023/10/23 03:59:07;;;;;;;4.97;1.90;;;6.70;99.90;;;;;;5075792;28;20179;-44
2023/10/23 04:01:34;;;;;;;4.77;2.33;;;6.70;99.90;;;;;;5075611;28;20203;-45
2023/10/23 04:04:20;;;;;;;5.47;1.90;;;6.70;99.90;;;;;;5058053;28;20596;-45
2023/10/23 04:06:49;;;;;;;6.67;2.13;;;6.60;99.90;;;;;;5074318;28;20251;-44
2023/10/23 04:09:21;;;;;;;5.33;2.20;;;6.60;99.90;;;;;;5057383;28;20187;-44
2023/10/23 04:11:54;;;;;;;4.40;1.90;;;6.60;99.90;;;;;;5073557;28;20226;-46
2023/10/23 04:14:26;;;;;;;5.20;1.90;;;6.60;99.90;;;;;;5074851;28;20175;-44
2023/10/23 04:17:01;;;;;;;9.80;2.07;;;6.60;99.90;;;;;;5057487;28;20555;-45
2023/10/23 04:19:32;;;;;;;4.40;1.67;;;6.60;99.90;;;;;;5041720;28;20175;-45
2023/10/23 04:22:34;;;;;;;3.83;1.83;;;6.60;99.90;;;;;;5074820;28;20286;-44
2023/10/23 04:25:05;;;;;;;5.93;1.60;;;6.50;99.90;;;;;;5072516;28;20237;-45
2023/10/23 04:46:20;;;;;;;4.43;1.93;;;6.40;99.90;;;;;;4893096;26;20227;-44
2023/10/23 04:48:46;;;;;;;4.10;1.83;;;6.40;99.90;;;;;;5057205;28;20186;-42
2023/10/23 04:51:13;;;;;;;4.33;1.63;;;6.40;99.90;;;;;;5069988;28;20191;-43
2023/10/23 04:53:39;;;;;;;2.47;1.63;;;6.30;99.90;;;;;;5060290;28;20183;-45
2023/10/23 04:56:07;;;;;;;1.83;1.37;;;6.40;99.90;;;;;;5077408;28;20175;-43
2023/10/23 05:04:49;;;;;;;3.40;1.70;;;6.20;99.90;;;;;;5114035;22;20239;-89
2023/10/23 05:07:14;;;;;;;3.57;2.03;;;6.20;99.90;;;;;;5080334;28;20181;-89
2023/10/23 05:09:41;;;;;;;3.70;1.50;;;6.90;99.90;;;;;;5079542;28;20572;-89
2023/10/23 05:12:07;;;;;;;3.50;1.70;;;6.20;99.90;;;;;;5079362;28;20210;-88
2023/10/23 05:14:33;;;;;;;3.67;1.63;;;6.20;99.90;;;;;;5097644;28;20171;-88
2023/10/23 05:16:58;;;;;;;4.13;1.83;;;6.20;99.90;;;;;;5079985;28;20181;-87
2023/10/23 05:19:24;;;;;;;9.53;2.10;;;6.20;99.90;;;;;;5079669;28;20289;-87
2023/10/23 05:21:50;;;;;;;2.70;1.53;;;6.20;99.90;;;;;;5079422;28;20182;-88
2023/10/23 05:24:16;;;;;;;6.90;2.00;;;7.60;99.90;;;;;;5079049;28;20187;-88
2023/10/23 05:26:41;;;;;;;4.33;1.97;;;6.20;99.90;;;;;;5079138;28;20568;-88
2023/10/23 05:29:07;;;;;;;7.13;2.17;;;6.20;99.90;;;;;;5079303;28;20195;-88
2023/10/23 05:31:32;;;;;;;6.10;1.90;;;6.20;99.90;;;;;;5078491;28;20179;-86
2023/10/23 05:33:58;;;;;;;5.67;1.97;;;6.70;99.90;;;;;;5079447;28;20167;-89
2023/10/23 05:36:26;;;;;;;4.40;2.00;;;8.50;99.90;;;;;;5083479;28;20201;-86
2023/10/23 05:38:55;;;;;;;5.67;2.10;;;6.90;99.90;;;;;;5069491;28;20704;-89
2023/10/23 05:41:21;;;;;;;3.50;2.13;;;6.20;99.90;;;;;;5049947;28;20187;-90
2023/10/23 05:43:47;;;;;;;2.63;2.00;;;7.50;99.90;;;;;;5094247;28;20183;-90
2023/10/23 05:46:12;;;;;;;4.23;2.13;;;6.10;99.90;;;;;;5071513;28;20208;-90
2023/10/23 05:48:42;;;;;;;4.87;1.80;;;7.00;99.90;;;;;;5091460;28;20205;-87
2023/10/23 05:51:13;;;;;;;1.80;1.70;;;6.50;99.90;;;;;;5070251;28;20255;-88
2023/10/23 05:53:41;;;;;;;6.53;2.00;;;6.90;99.90;;;;;;5084316;28;20182;-90
2023/10/23 05:56:07;;;;;;;3.20;1.70;;;6.40;99.90;;;;;;5084621;28;20190;-89
2023/10/23 06:01:20;;;;;;;9.73;5.00;;;6.00;99.90;;;;;;5040554;28;20238;-41
2023/10/23 06:03:49;;;;;;;6.57;3.40;;;5.90;99.90;;;;;;5052132;28;20246;-43
2023/10/23 06:06:15;;;;;;;5.10;2.30;;;5.90;99.90;;;;;;5053650;28;20236;-45
2023/10/23 06:12:04;;;;;;;5.67;3.70;;;6.00;99.90;;;;;;5053256;28;20207;-40
2023/10/23 06:14:30;;;;;;;4.90;2.70;;;6.00;99.90;;;;;;5053179;28;20183;-39
2023/10/23 06:16:56;;;;;;;4.57;2.37;;;6.00;99.90;;;;;;5053873;28;20263;-41
2023/10/23 06:19:22;;;;;;;6.73;3.03;;;6.00;99.90;;;;;;5052002;28;20202;-40
2023/10/23 06:21:47;;;;;;;7.43;3.53;;;6.00;99.90;;;;;;5053376;28;20659;-40
2023/10/23 06:24:13;;;;;;;11.53;5.20;;;6.00;99.90;;;;;;5053153;28;20262;-40
2023/10/23 06:26:39;;;;;;;4.20;2.80;;;6.00;99.90;;;;;;5053076;28;20231;-41
2023/10/23 06:29:04;;;;;;;6.17;2.33;;;6.00;99.90;;;;;;5035324;28;20267;-40
2023/10/23 06:31:30;;;;;;;3.27;2.30;;;6.00;99.90;;;;;;5035281;28;20203;-40
2023/10/23 06:33:55;;;;;;;6.07;2.70;;;6.10;99.90;;;;;;5035220;28;20183;-39
2023/10/23 06:36:21;;;;;;;5.30;3.40;;;6.10;99.90;;;;;;5055675;28;20186;-41
2023/10/23 06:38:47;;;;;;;8.63;2.53;;;6.10;99.90;;;;;;5057117;28;20180;-41
2023/10/23 06:41:13;;;;;;;7.27;2.73;;;6.10;99.90;;;;;;5039002;28;20219;-40
2023/10/23 06:43:39;;;;;;;5.13;2.57;;;6.20;99.90;;;;;;5056836;28;20177;-40
2023/10/23 06:46:05;;;;;;;8.67;2.90;;;6.20;99.90;;;;;;5057091;28;20203;-41
2023/10/23 06:48:31;;;;;;;5.80;3.23;;;6.30;99.90;;;;;;5056941;28;20541;-41
2023/10/23 06:50:57;;;;;;;5.83;2.87;;;6.30;99.90;;;;;;5056730;28;20192;-41
2023/10/23 06:53:23;;;;;;;6.43;2.87;;;6.30;99.90;;;;;;5056735;28;20651;-40
2023/10/23 06:55:52;;;;;;;6.47;3.07;;;6.40;99.90;;;;;;5056880;28;20225;-40
2023/10/23 06:58:21;;;;;;;7.83;2.77;;;6.40;99.90;;;;;;5038935;28;20286;-41
2023/10/23 07:00:47;;;;;;;6.83;3.40;;;6.50;99.90;;;;;;5038490;28;20310;-42
2023/10/23 07:03:14;;;;;;;6.67;3.40;;;6.50;99.90;;;;;;5056511;28;20598;-40
2023/10/23 07:05:40;;;;;;;5.77;3.47;;;6.60;99.90;;;;;;5038708;28;20576;-40
2023/10/23 07:08:06;;;;;;;7.80;3.17;;;6.60;99.90;;;;;;5056521;28;20172;-40
2023/10/23 07:10:36;;;;;;;7.97;3.43;;;6.60;99.90;;;;;;5038389;28;20194;-40
2023/10/23 07:13:02;;;;;;;5.83;3.10;;;6.70;99.90;;;;;;5039058;28;20236;-42
2023/10/23 07:15:28;;;;;;;7.23;3.53;;;6.70;99.90;;;;;;5038424;28;20278;-41
2023/10/23 07:17:55;;;;;;;4.77;3.33;;;6.80;99.90;;;;;;5038211;28;20180;-41
2023/10/23 07:20:20;;;;;;;6.03;3.57;;;6.80;99.90;;;;;;5056544;28;20282;-40
2023/10/23 07:22:46;;;;;;;9.70;4.00;;;6.80;99.90;;;;;;5038335;28;20230;-41
2023/10/23 07:25:13;;;;;;;7.97;4.17;;;6.90;99.90;;;;;;5056089;28;20206;-40
2023/10/23 07:27:39;;;;;;;14.37;4.70;;;7.00;99.90;;;;;;5038284;28;20177;-40
2023/10/23 07:30:06;;;;;;;8.37;3.93;;;7.10;99.90;;;;;;5038362;28;20283;-45
2023/10/23 07:32:34;;;;;;;7.87;4.10;;;7.20;99.90;;;;;;5038344;28;20705;-44
2023/10/23 07:35:00;;;;;;;11.43;3.87;;;7.30;99.90;;;;;;5055909;28;20172;-45
2023/10/23 07:37:27;;;;;;;8.77;4.17;;;7.40;99.90;;;;;;5054669;28;20268;-44
2023/10/23 07:39:53;;;;;;;11.33;4.80;;;7.40;99.90;;;;;;5055752;28;20218;-43
2023/10/23 07:42:19;;;;;;;8.27;4.10;;;7.50;99.90;;;;;;5056330;28;20190;-44
2023/10/23 07:44:45;;;;;;;10.03;4.70;;;7.60;99.90;;;;;;5061504;28;20188;-44
2023/10/23 07:47:11;;;;;;;8.40;4.90;;;7.60;99.90;;;;;;5054667;28;20176;-44
2023/10/23 07:49:37;;;;;;;9.70;4.03;;;7.70;99.90;;;;;;5037854;28;20199;-46
2023/10/23 07:52:03;;;;;;;9.33;4.30;;;7.80;99.90;;;;;;5055625;28;20379;-45
2023/10/23 07:54:31;;;;;;;8.80;4.33;;;7.90;99.90;;;;;;5056264;28;20252;-44
2023/10/23 07:56:57;;;;;;;11.03;4.90;;;7.90;99.90;;;;;;5055517;28;20179;-45
2023/10/23 07:59:23;;;;;;;8.03;4.87;;;8.00;99.90;;;;;;5037674;28;20195;-45
2023/10/23 08:01:52;;;;;;;11.53;4.33;;;8.10;99.90;;;;;;5055399;28;20193;-44
2023/10/23 08:04:19;;;;;;;7.37;4.53;;;8.10;99.90;;;;;;5038378;28;20184;-45
2023/10/23 08:06:45;;;;;;;8.53;4.30;;;8.20;99.90;;;;;;5056364;28;20587;-43
2023/10/23 08:09:14;;;;;;;10.07;4.93;;;8.20;99.90;;;;;;5037506;28;20722;-45
2023/10/23 08:11:41;;;;;;;11.10;4.67;;;8.30;99.90;;;;;;5037319;28;20215;-45
2023/10/23 08:14:12;;;;;;;8.03;4.37;;;8.40;99.90;;;;;;5037249;28;20191;-43
2023/10/23 08:16:38;;;;;;;9.57;4.40;;;8.50;99.90;;;;;;5055486;28;20571;-44
2023/10/23 08:19:05;;;;;;;10.97;4.40;;;8.50;99.90;;;;;;5055445;28;20264;-45
2023/10/23 08:21:34;;;;;;;12.47;5.03;;;8.60;99.90;;;;;;5054935;28;20210;-44
2023/10/23 08:24:02;;;;;;;10.33;5.33;;;8.70;99.90;;;;;;5037056;28;20255;-44
2023/10/23 08:26:30;;;;;;;13.67;5.17;;;8.80;99.90;;;;;;5055006;28;20208;-44
2023/10/23 08:28:57;;;;;;;15.07;5.37;;;8.80;99.90;;;;;;5036994;28;20195;-45
2023/10/23 08:31:26;;;;;;;11.13;5.20;;;8.90;99.90;;;;;;5054788;28;20309;-43
2023/10/23 08:33:56;;;;;;;8.03;4.53;;;9.00;99.90;;;;;;5036924;28;20178;-43
2023/10/23 08:36:21;;;;;;;10.60;4.90;;;9.10;99.90;;;;;;5054853;28;20208;-43
2023/10/23 08:38:48;;;;;;;12.10;5.03;;;9.20;99.90;;;;;;5036965;28;20207;-44
2023/10/23 08:41:14;;;;;;;13.30;4.33;;;9.30;99.90;;;;;;5036754;28;20242;-44
2023/10/23 08:43:43;;;;;;;7.47;4.00;;;9.40;99.90;;;;;;5054604;28;20208;-44
2023/10/23 08:46:14;;;;;;;12.33;4.23;;;9.50;99.90;;;;;;5054533;28;20203;-43
2023/10/23 08:48:39;;;;;;;4.97;3.13;;;9.50;99.90;;;;;;5037131;28;20158;-43
2023/10/23 08:51:07;;;;;;;8.83;3.50;;;9.70;99.90;;;;;;5036857;28;20253;-44
2023/10/23 08:53:40;;;;;;;6.90;3.50;;;9.70;99.90;;;;;;5054468;28;20172;-43
2023/10/23 08:56:07;;;;;;;9.63;4.33;;;9.80;99.90;;;;;;5021067;28;20246;-44
2023/10/23 08:58:37;;;;;;;11.07;4.47;;;9.90;99.90;;;;;;5036654;28;20203;-44
2023/10/23 09:01:03;;;;;;;10.57;4.63;;;9.90;99.90;;;;;;5054256;28;20276;-45
2023/10/23 09:03:38;;;;;;;8.80;4.20;;;10.00;99.90;;;;;;5054574;28;20184;-44
2023/10/23 09:06:08;;;;;;;10.30;4.17;;;10.10;99.90;;;;;;5036386;28;20635;-44
2023/10/23 09:08:37;;;;;;;9.97;3.70;;;10.20;99.90;;;;;;5054345;28;20198;-44
2023/10/23 09:11:06;;;;;;;10.03;4.37;;;10.20;99.90;;;;;;5053086;28;20200;-45
2023/10/23 09:13:37;;;;;;;6.73;4.63;;;10.30;99.90;;;;;;5036128;28;20182;-44
2023/10/23 09:16:05;;;;;;;9.13;4.60;;;10.40;99.90;;;;;;5053173;28;20193;-45
2023/10/23 09:18:32;;;;;;;9.23;3.63;;;10.50;99.90;;;;;;5036146;28;20301;-44
2023/10/23 09:21:01;;;;;;;5.63;3.37;;;10.50;99.90;;;;;;5053937;28;20205;-44
2023/10/23 09:23:33;;;;;;;6.50;3.10;;;10.50;99.90;;;;;;5053282;28;20194;-44
2023/10/23 09:26:00;;;;;;;5.33;3.13;;;10.60;99.90;;;;;;5053900;28;20674;-45
2023/10/23 09:28:28;;;;;;;7.07;3.87;;;10.70;99.90;;;;;;5034321;28;20206;-45
2023/10/23 09:30:56;;;;;;;8.37;4.27;;;10.70;99.90;;;;;;5050630;28;20235;-44
2023/10/23 09:33:22;;;;;;;8.07;4.03;;;10.70;99.90;;;;;;5053966;28;20171;-44
2023/10/23 09:36:20;;;;;;;7.87;4.83;;;10.80;99.90;;;;;;5053960;28;20191;-44
2023/10/23 09:42:11;;;;;;;10.77;4.47;;;10.90;99.90;;;;;;5053671;28;20162;-44
2023/10/23 09:44:40;;;;;;;10.90;5.30;;;11.00;99.90;;;;;;5035612;28;20645;-46
2023/10/23 09:47:09;;;;;;;6.87;4.87;;;11.10;99.90;;;;;;5053416;28;20199;-45
2023/10/23 09:49:39;;;;;;;10.00;5.70;;;11.10;99.90;;;;;;5052508;28;20191;-45
2023/10/23 09:52:15;;;;;;;8.83;5.73;;;11.20;99.90;;;;;;5052339;28;20180;-44
2023/10/23 09:54:45;;;;;;;14.03;6.97;;;11.30;99.90;;;;;;5053746;28;20171;-43
2023/10/23 09:57:16;;;;;;;16.67;8.20;;;11.30;99.90;;;;;;5052235;28;20179;-44
2023/10/23 09:59:59;;;;;;;16.47;9.23;;;11.40;99.90;;;;;;5052180;28;20275;-45
2023/10/23 10:02:35;;;;;;;16.20;10.53;;;11.50;99.90;;;;;;5052043;28;20187;-45
2023/10/23 10:05:19;;;;;;;20.83;12.03;;;11.60;99.90;;;;;;5035477;28;20199;-44
2023/10/23 10:08:11;;;;;;;22.90;14.07;;;11.70;99.90;;;;;;5036316;28;20378;-45
2023/10/23 10:10:38;;;;;;;18.10;13.37;;;11.70;99.90;;;;;;5052824;28;20200;-47
2023/10/23 10:13:11;;;;;;;18.70;12.47;;;11.80;99.90;;;;;;5052180;28;20287;-45
2023/10/23 10:15:45;;;;;;;22.30;14.43;;;11.90;99.90;;;;;;5052283;28;20705;-45
2023/10/23 10:18:59;;;;;;;23.37;14.80;;;11.90;99.90;;;;;;5052547;28;20176;-45
2023/10/23 10:21:27;;;;;;;23.73;15.63;;;12.00;99.90;;;;;;5038096;28;20571;-46
2023/10/23 10:24:03;;;;;;;26.73;17.70;;;12.00;99.90;;;;;;5060557;28;20206;-38
2023/10/23 10:26:31;;;;;;;31.17;17.87;;;12.00;99.90;;;;;;5035273;28;20686;-44
2023/10/23 10:29:03;;;;;;;30.27;18.77;;;12.00;99.90;;;;;;5053144;28;20176;-40
2023/10/23 10:32:12;;;;;;;29.33;18.77;;;12.10;99.90;;;;;;5053705;28;20258;-39
2023/10/23 10:34:45;;;;;;;30.07;19.37;;;12.10;99.90;;;;;;5027959;28;20192;-40
2023/10/23 10:37:14;;;;;;;27.33;18.90;;;12.10;99.90;;;;;;5053220;28;20208;-39
2023/10/23 10:40:09;;;;;;;30.97;19.17;;;12.10;99.90;;;;;;5053088;28;20195;-40
2023/10/23 10:42:38;;;;;;;24.60;18.70;;;12.10;99.90;;;;;;5053333;28;20172;-40
2023/10/23 10:45:15;;;;;;;26.97;19.23;;;12.20;99.90;;;;;;5034917;28;20554;-41
2023/10/23 10:47:48;;;;;;;24.10;17.87;;;12.10;99.90;;;;;;5047995;28;20184;-39
2023/10/23 10:50:35;;;;;;;29.47;19.87;;;12.10;99.90;;;;;;5012177;28;20353;-40
2023/10/23 10:53:15;;;;;;;29.37;20.40;;;12.20;99.90;;;;;;5028812;28;20184;-41
2023/10/23 10:55:45;;;;;;;30.40;19.23;;;12.20;99.90;;;;;;5052008;28;20172;-42
2023/10/23 10:58:14;;;;;;;28.53;15.93;;;12.30;99.90;;;;;;5053165;28;20177;-40
2023/10/23 11:00:41;;;;;;;29.70;16.03;;;12.30;99.90;;;;;;5052490;28;20621;-42
2023/10/23 11:03:07;;;;;;;25.63;16.47;;;12.30;99.90;;;;;;5053025;28;20165;-40
2023/10/23 11:05:37;;;;;;;25.87;17.67;;;12.40;99.90;;;;;;5052702;28;20204;-41
2023/10/23 11:08:17;;;;;;;25.87;17.97;;;12.40;99.90;;;;;;5051884;28;20306;-41
2023/10/23 11:10:49;;;;;;;22.23;15.10;;;12.50;99.90;;;;;;5052707;28;20220;-40
2023/10/23 11:13:15;;;;;;;24.70;15.17;;;12.50;99.90;;;;;;5052968;28;20562;-39
2023/10/23 11:15:43;;;;;;;20.87;15.33;;;12.60;99.90;;;;;;5034879;28;20188;-39
2023/10/23 11:18:10;;;;;;;16.27;12.80;;;12.70;99.90;;;;;;5052654;28;20184;-39
2023/10/23 11:20:36;;;;;;;19.27;12.03;;;12.70;99.90;;;;;;5035608;28;20303;-40
2023/10/23 11:23:05;;;;;;;14.43;11.33;;;12.70;99.90;;;;;;5053795;28;20228;-39
2023/10/23 11:25:32;;;;;;;15.63;12.83;;;12.80;99.90;;;;;;5056235;28;20287;-39
2023/10/23 11:27:58;;;;;;;18.40;11.77;;;12.80;99.90;;;;;;5038582;28;20180;-40
2023/10/23 11:30:27;;;;;;;16.87;11.20;;;12.80;99.90;;;;;;5055187;28;20686;-39
2023/10/23 11:32:53;;;;;;;23.20;11.13;;;12.80;99.90;;;;;;5055118;28;20184;-40
2023/10/23 11:35:20;;;;;;;11.50;9.50;;;12.90;99.90;;;;;;5038139;28;20195;-41
2023/10/23 11:37:48;;;;;;;11.67;9.37;;;12.90;99.90;;;;;;5038236;28;20655;-39
2023/10/23 11:40:22;;;;;;;13.80;9.80;;;13.00;99.90;;;;;;5038200;28;20208;-41
2023/10/23 11:42:55;;;;;;;13.47;8.67;;;13.00;99.90;;;;;;5038951;28;20199;-40
2023/10/23 11:45:22;;;;;;;10.97;7.77;;;13.10;99.90;;;;;;5037771;28;20208;-42
2023/10/23 11:47:53;;;;;;;8.57;6.77;;;13.10;99.90;;;;;;5037996;28;20188;-41
2023/10/23 11:50:20;;;;;;;8.80;7.03;;;13.20;99.90;;;;;;5056055;28;20236;-40
2023/10/23 11:52:48;;;;;;;10.33;5.83;;;13.20;99.90;;;;;;5082847;22;20626;-45
2023/10/23 11:55:16;;;;;;;8.67;5.57;;;13.20;99.90;;;;;;5077602;28;20186;-47
2023/10/23 11:57:50;;;;;;;7.57;4.83;;;13.20;99.90;;;;;;5096275;28;20266;-47
2023/10/23 12:00:17;;;;;;;6.87;4.80;;;13.30;99.90;;;;;;5096312;28;20211;-47
2023/10/23 12:02:47;;;;;;;10.30;5.00;;;13.30;99.90;;;;;;5095890;28;20179;-45
2023/10/23 12:05:15;;;;;;;8.23;4.67;;;13.30;99.90;;;;;;5095609;28;20210;-46
2023/10/23 12:07:52;;;;;;;8.73;4.53;;;13.40;99.90;;;;;;5095861;28;20253;-47
2023/10/23 12:10:20;;;;;;;9.67;4.70;;;13.40;99.90;;;;;;5095770;28;20204;-46
2023/10/23 12:12:47;;;;;;;11.07;4.87;;;13.50;99.90;;;;;;5095360;28;20187;-47
2023/10/23 12:15:14;;;;;;;10.30;4.70;;;13.50;99.90;;;;;;5095812;28;20179;-47
2023/10/23 12:17:41;;;;;;;8.77;3.90;;;13.60;99.90;;;;;;5095677;28;20299;-46
2023/10/23 12:20:11;;;;;;;8.83;4.00;;;13.60;99.90;;;;;;5095816;28;20566;-47
2023/10/23 12:22:46;;;;;;;6.30;3.90;;;13.70;99.90;;;;;;5095212;28;20549;-46
2023/10/23 12:25:13;;;;;;;8.23;4.00;;;13.70;99.90;;;;;;5077452;28;20202;-46
2023/10/23 12:27:40;;;;;;;5.93;3.37;;;13.70;99.90;;;;;;5095926;28;20169;-46
2023/10/23 12:30:07;;;;;;;9.20;3.83;;;13.70;99.90;;;;;;5077772;28;20233;-46
2023/10/23 12:32:34;;;;;;;8.23;4.23;;;13.80;99.90;;;;;;5094394;28;20206;-45
2023/10/23 12:35:03;;;;;;;7.57;3.40;;;13.80;99.90;;;;;;5095366;28;20183;-47
2023/10/23 12:37:30;;;;;;;6.07;3.10;;;13.90;99.90;;;;;;5095150;28;20652;-46
2023/10/23 12:39:58;;;;;;;5.73;3.03;;;13.90;99.90;;;;;;5095344;28;20197;-46
2023/10/23 12:42:24;;;;;;;5.27;3.00;;;13.90;99.90;;;;;;5095238;28;20525;-46
2023/10/23 12:44:51;;;;;;;7.23;3.20;;;13.90;99.90;;;;;;5076695;28;20175;-46
2023/10/23 12:47:17;;;;;;;6.60;2.90;;;14.00;99.90;;;;;;5058991;28;20187;-48
2023/10/23 12:49:43;;;;;;;7.63;2.97;;;14.00;99.90;;;;;;5076768;28;20232;-47
2023/10/23 12:52:10;;;;;;;9.67;2.93;;;14.00;99.90;;;;;;5094562;28;20714;-46
2023/10/23 12:54:37;;;;;;;13.03;3.10;;;14.00;99.90;;;;;;5093027;28;20253;-46
2023/10/23 12:57:04;;;;;;;4.53;2.80;;;14.00;99.90;;;;;;5094964;28;20638;-47
2023/10/23 12:59:38;;;;;;;5.63;2.70;;;14.00;99.90;;;;;;5094717;28;20634;-47
2023/10/23 13:02:04;;;;;;;4.60;2.67;;;14.00;99.90;;;;;;5094931;28;20166;-47
2023/10/23 13:04:30;;;;;;;5.87;2.50;;;14.10;99.90;;;;;;5076644;28;20248;-45
2023/10/23 13:06:56;;;;;;;6.83;2.33;;;14.10;99.90;;;;;;5094578;28;20662;-47
2023/10/23 13:09:22;;;;;;;4.27;2.47;;;14.10;99.90;;;;;;5076769;28;20186;-46
2023/10/23 13:11:48;;;;;;;4.43;3.00;;;14.20;99.90;;;;;;5076992;28;20267;-46
2023/10/23 13:14:16;;;;;;;7.27;3.00;;;14.20;99.90;;;;;;5094589;28;20228;-46
2023/10/23 13:16:42;;;;;;;5.87;2.43;;;14.30;99.90;;;;;;5076140;28;20214;-47
2023/10/23 13:19:07;;;;;;;5.57;3.00;;;14.30;99.90;;;;;;5094489;28;20623;-46
2023/10/23 13:21:37;;;;;;;5.27;2.17;;;14.40;99.90;;;;;;5094376;28;20199;-47
2023/10/23 13:24:05;;;;;;;6.03;2.43;;;14.50;99.90;;;;;;5076738;28;20190;-47
2023/10/23 13:26:31;;;;;;;4.10;2.33;;;14.40;99.90;;;;;;5076231;28;20264;-48
2023/10/23 13:29:00;;;;;;;5.03;2.33;;;14.50;99.90;;;;;;5093751;28;20194;-46
2023/10/23 13:31:27;;;;;;;2.80;2.00;;;14.60;99.90;;;;;;5094043;28;20234;-46
2023/10/23 13:33:52;;;;;;;2.73;1.70;;;14.70;99.90;;;;;;5094273;28;20175;-46
2023/10/23 13:36:18;;;;;;;3.30;1.77;;;14.60;99.90;;;;;;5093865;28;20198;-46
2023/10/23 13:38:44;;;;;;;7.43;2.00;;;14.60;99.90;;;;;;5076033;28;20228;-47
2023/10/23 13:41:09;;;;;;;5.40;2.00;;;14.60;99.90;;;;;;5094071;28;20252;-46
2023/10/23 13:43:35;;;;;;;4.33;1.90;;;14.50;99.90;;;;;;5093440;28;20210;-47